sensor_id;sensor_type;location;lat;lon;timestamp;P1;durP1;ratioP1;P2;durP2;ratioP2
46447;SDS011;32145;50.390;30.778;2022-08-11T00:03:20;7.40;;;5.95;;
46447;SDS011;32145;50.390;30.778;2022-08-11T00:06:05;10.77;;;5.78;;
46447;SDS011;32145;50.390;30.778;2022-08-11T00:08:50;9.48;;;5.80;;
46447;SDS011;32145;50.390;30.778;2022-08-11T00:11:37;6.80;;;5.63;;
46447;SDS011;32145;50.390;30.778;2022-08-11T00:14:24;9.60;;;5.68;;
46447;SDS011;32145;50.390;30.778;2022-08-11T00:17:12;8.30;;;6.10;;
46447;SDS011;32145;50.390;30.778;2022-08-11T00:20:03;10.95;;;6.00;;
46447;SDS011;32145;50.390;30.778;2022-08-11T00:22:49;9.68;;;6.15;;
46447;SDS011;32145;50.390;30.778;2022-08-11T00:25:37;8.38;;;5.68;;
46447;SDS011;32145;50.390;30.778;2022-08-11T00:28:24;11.25;;;5.70;;
46447;SDS011;32145;50.390;30.778;2022-08-11T00:31:10;7.53;;;5.70;;
46447;SDS011;32145;50.390;30.778;2022-08-11T00:34:03;7.97;;;5.72;;
46447;SDS011;32145;50.390;30.778;2022-08-11T00:36:54;9.63;;;6.03;;
46447;SDS011;32145;50.390;30.778;2022-08-11T00:39:43;7.03;;;5.22;;
46447;SDS011;32145;50.390;30.778;2022-08-11T00:42:39;9.27;;;5.45;;
46447;SDS011;32145;50.390;30.778;2022-08-11T00:45:38;7.65;;;5.40;;
46447;SDS011;32145;50.390;30.778;2022-08-11T00:48:32;7.97;;;5.53;;
46447;SDS011;32145;50.390;30.778;2022-08-11T00:51:23;7.35;;;5.55;;
46447;SDS011;32145;50.390;30.778;2022-08-11T00:58:09;7.20;;;5.63;;
46447;SDS011;32145;50.390;30.778;2022-08-11T01:01:25;8.15;;;5.43;;
46447;SDS011;32145;50.390;30.778;2022-08-11T01:14:28;7.68;;;5.07;;
46447;SDS011;32145;50.390;30.778;2022-08-11T01:17:46;6.38;;;5.30;;
46447;SDS011;32145;50.390;30.778;2022-08-11T01:20:58;10.02;;;5.20;;
46447;SDS011;32145;50.390;30.778;2022-08-11T01:27:47;9.07;;;5.90;;
46447;SDS011;32145;50.390;30.778;2022-08-11T01:41:07;10.05;;;5.13;;
46447;SDS011;32145;50.390;30.778;2022-08-11T01:44:12;7.53;;;5.57;;
46447;SDS011;32145;50.390;30.778;2022-08-11T01:47:09;7.10;;;5.47;;
46447;SDS011;32145;50.390;30.778;2022-08-11T01:50:03;6.75;;;5.40;;
46447;SDS011;32145;50.390;30.778;2022-08-11T01:53:00;6.82;;;5.70;;
46447;SDS011;32145;50.390;30.778;2022-08-11T01:55:57;7.18;;;5.38;;
46447;SDS011;32145;50.390;30.778;2022-08-11T01:58:55;11.82;;;5.75;;
46447;SDS011;32145;50.390;30.778;2022-08-11T02:05:10;6.70;;;6.00;;
46447;SDS011;32145;50.390;30.778;2022-08-11T02:08:07;8.57;;;6.10;;
46447;SDS011;32145;50.390;30.778;2022-08-11T02:11:00;8.52;;;5.82;;
46447;SDS011;32145;50.390;30.778;2022-08-11T02:13:52;9.45;;;5.68;;
46447;SDS011;32145;50.390;30.778;2022-08-11T02:16:47;8.77;;;5.70;;
46447;SDS011;32145;50.390;30.778;2022-08-11T02:19:48;7.78;;;5.43;;
46447;SDS011;32145;50.390;30.778;2022-08-11T02:22:40;7.97;;;5.60;;
46447;SDS011;32145;50.390;30.778;2022-08-11T02:25:33;9.05;;;6.10;;
46447;SDS011;32145;50.390;30.778;2022-08-11T02:28:23;10.38;;;5.35;;
46447;SDS011;32145;50.390;30.778;2022-08-11T02:31:16;9.85;;;5.40;;
46447;SDS011;32145;50.390;30.778;2022-08-11T02:34:12;7.57;;;5.80;;
46447;SDS011;32145;50.390;30.778;2022-08-11T02:37:06;9.27;;;5.78;;
46447;SDS011;32145;50.390;30.778;2022-08-11T02:40:07;7.13;;;5.90;;
46447;SDS011;32145;50.390;30.778;2022-08-11T02:43:03;7.20;;;5.60;;
46447;SDS011;32145;50.390;30.778;2022-08-11T02:45:55;7.78;;;6.22;;
46447;SDS011;32145;50.390;30.778;2022-08-11T02:48:57;9.07;;;5.78;;
46447;SDS011;32145;50.390;30.778;2022-08-11T02:51:52;8.93;;;5.65;;
46447;SDS011;32145;50.390;30.778;2022-08-11T02:54:49;7.28;;;5.60;;
46447;SDS011;32145;50.390;30.778;2022-08-11T02:57:46;6.85;;;5.90;;
46447;SDS011;32145;50.390;30.778;2022-08-11T03:00:41;7.57;;;5.80;;
46447;SDS011;32145;50.390;30.778;2022-08-11T03:03:33;11.82;;;6.03;;
46447;SDS011;32145;50.390;30.778;2022-08-11T03:06:28;7.32;;;5.80;;
46447;SDS011;32145;50.390;30.778;2022-08-11T03:09:21;6.63;;;5.57;;
46447;SDS011;32145;50.390;30.778;2022-08-11T03:12:10;5.93;;;5.15;;
46447;SDS011;32145;50.390;30.778;2022-08-11T03:15:02;8.05;;;5.75;;
46447;SDS011;32145;50.390;30.778;2022-08-11T03:17:56;8.20;;;5.90;;
46447;SDS011;32145;50.390;30.778;2022-08-11T03:20:50;8.82;;;6.18;;
46447;SDS011;32145;50.390;30.778;2022-08-11T03:23:43;6.90;;;5.85;;
46447;SDS011;32145;50.390;30.778;2022-08-11T03:26:37;7.90;;;6.38;;
46447;SDS011;32145;50.390;30.778;2022-08-11T03:29:30;8.43;;;6.45;;
46447;SDS011;32145;50.390;30.778;2022-08-11T03:32:20;9.90;;;6.72;;
46447;SDS011;32145;50.390;30.778;2022-08-11T03:35:10;8.85;;;6.38;;
46447;SDS011;32145;50.390;30.778;2022-08-11T03:38:01;8.43;;;6.17;;
46447;SDS011;32145;50.390;30.778;2022-08-11T03:40:56;8.65;;;6.80;;
46447;SDS011;32145;50.390;30.778;2022-08-11T03:43:52;12.02;;;6.50;;
46447;SDS011;32145;50.390;30.778;2022-08-11T03:46:52;8.45;;;6.30;;
46447;SDS011;32145;50.390;30.778;2022-08-11T03:49:52;8.23;;;6.55;;
46447;SDS011;32145;50.390;30.778;2022-08-11T03:52:48;8.77;;;6.40;;
46447;SDS011;32145;50.390;30.778;2022-08-11T03:55:53;8.70;;;6.53;;
46447;SDS011;32145;50.390;30.778;2022-08-11T03:59:15;7.85;;;6.32;;
46447;SDS011;32145;50.390;30.778;2022-08-11T04:02:25;8.05;;;6.68;;
46447;SDS011;32145;50.390;30.778;2022-08-11T04:05:34;12.15;;;6.63;;
46447;SDS011;32145;50.390;30.778;2022-08-11T04:09:01;7.97;;;6.82;;
46447;SDS011;32145;50.390;30.778;2022-08-11T04:12:35;8.38;;;7.10;;
46447;SDS011;32145;50.390;30.778;2022-08-11T04:16:00;8.63;;;6.60;;
46447;SDS011;32145;50.390;30.778;2022-08-11T04:22:26;9.35;;;6.78;;
46447;SDS011;32145;50.390;30.778;2022-08-11T04:25:29;9.73;;;7.15;;
46447;SDS011;32145;50.390;30.778;2022-08-11T04:28:35;9.00;;;6.60;;
46447;SDS011;32145;50.390;30.778;2022-08-11T04:31:37;8.65;;;7.25;;
46447;SDS011;32145;50.390;30.778;2022-08-11T04:37:36;11.38;;;7.43;;
46447;SDS011;32145;50.390;30.778;2022-08-11T04:43:48;9.02;;;7.05;;
46447;SDS011;32145;50.390;30.778;2022-08-11T04:47:09;9.80;;;6.70;;
46447;SDS011;32145;50.390;30.778;2022-08-11T04:50:16;13.48;;;7.47;;
46447;SDS011;32145;50.390;30.778;2022-08-11T04:53:18;11.48;;;7.25;;
46447;SDS011;32145;50.390;30.778;2022-08-11T04:56:13;9.20;;;7.15;;
46447;SDS011;32145;50.390;30.778;2022-08-11T04:59:10;10.80;;;7.70;;
46447;SDS011;32145;50.390;30.778;2022-08-11T05:02:24;10.27;;;7.32;;
46447;SDS011;32145;50.390;30.778;2022-08-11T05:05:34;11.25;;;7.47;;
46447;SDS011;32145;50.390;30.778;2022-08-11T05:15:19;9.63;;;7.45;;
46447;SDS011;32145;50.390;30.778;2022-08-11T05:18:13;15.70;;;7.60;;
46447;SDS011;32145;50.390;30.778;2022-08-11T05:21:02;15.57;;;7.80;;
46447;SDS011;32145;50.390;30.778;2022-08-11T05:23:52;9.23;;;7.30;;
46447;SDS011;32145;50.390;30.778;2022-08-11T05:26:45;10.70;;;7.90;;
46447;SDS011;32145;50.390;30.778;2022-08-11T05:29:39;10.85;;;7.57;;
46447;SDS011;32145;50.390;30.778;2022-08-11T05:32:29;9.05;;;7.47;;
46447;SDS011;32145;50.390;30.778;2022-08-11T05:35:23;10.07;;;7.88;;
46447;SDS011;32145;50.390;30.778;2022-08-11T05:38:15;12.05;;;7.65;;
46447;SDS011;32145;50.390;30.778;2022-08-11T05:41:03;8.85;;;6.90;;
46447;SDS011;32145;50.390;30.778;2022-08-11T05:43:49;8.07;;;7.00;;
46447;SDS011;32145;50.390;30.778;2022-08-11T05:46:37;9.55;;;6.97;;
46447;SDS011;32145;50.390;30.778;2022-08-11T05:49:24;8.02;;;7.07;;
46447;SDS011;32145;50.390;30.778;2022-08-11T05:52:13;9.70;;;6.78;;
46447;SDS011;32145;50.390;30.778;2022-08-11T05:55:00;9.38;;;6.80;;
46447;SDS011;32145;50.390;30.778;2022-08-11T05:57:46;12.32;;;6.43;;
46447;SDS011;32145;50.390;30.778;2022-08-11T06:00:30;8.95;;;6.97;;
46447;SDS011;32145;50.390;30.778;2022-08-11T06:03:25;11.65;;;6.70;;
46447;SDS011;32145;50.390;30.778;2022-08-11T06:06:13;9.18;;;6.80;;
46447;SDS011;32145;50.390;30.778;2022-08-11T06:08:57;8.02;;;6.57;;
46447;SDS011;32145;50.390;30.778;2022-08-11T06:11:42;8.68;;;6.60;;
46447;SDS011;32145;50.390;30.778;2022-08-11T06:14:27;8.20;;;6.35;;
46447;SDS011;32145;50.390;30.778;2022-08-11T06:17:12;11.88;;;6.38;;
46447;SDS011;32145;50.390;30.778;2022-08-11T06:19:58;7.55;;;6.35;;
46447;SDS011;32145;50.390;30.778;2022-08-11T06:22:45;6.85;;;6.10;;
46447;SDS011;32145;50.390;30.778;2022-08-11T06:25:37;9.73;;;6.13;;
46447;SDS011;32145;50.390;30.778;2022-08-11T06:28:27;6.68;;;5.45;;
46447;SDS011;32145;50.390;30.778;2022-08-11T06:31:16;6.18;;;5.47;;
46447;SDS011;32145;50.390;30.778;2022-08-11T06:36:54;7.10;;;5.68;;
46447;SDS011;32145;50.390;30.778;2022-08-11T06:39:46;9.68;;;5.72;;
46447;SDS011;32145;50.390;30.778;2022-08-11T06:42:37;7.50;;;5.53;;
46447;SDS011;32145;50.390;30.778;2022-08-11T06:45:31;7.38;;;5.63;;
46447;SDS011;32145;50.390;30.778;2022-08-11T06:48:23;9.35;;;5.85;;
46447;SDS011;32145;50.390;30.778;2022-08-11T06:51:08;35.92;;;8.52;;
46447;SDS011;32145;50.390;30.778;2022-08-11T06:53:54;8.13;;;5.25;;
46447;SDS011;32145;50.390;30.778;2022-08-11T06:56:40;9.90;;;5.55;;
46447;SDS011;32145;50.390;30.778;2022-08-11T06:59:25;17.98;;;6.65;;
46447;SDS011;32145;50.390;30.778;2022-08-11T07:02:12;7.65;;;5.40;;
46447;SDS011;32145;50.390;30.778;2022-08-11T07:05:00;6.93;;;5.90;;
46447;SDS011;32145;50.390;30.778;2022-08-11T07:07:57;7.35;;;6.18;;
46447;SDS011;32145;50.390;30.778;2022-08-11T07:14:26;7.63;;;5.95;;
46447;SDS011;32145;50.390;30.778;2022-08-11T07:17:13;7.15;;;5.90;;
46447;SDS011;32145;50.390;30.778;2022-08-11T07:20:00;11.23;;;5.68;;
46447;SDS011;32145;50.390;30.778;2022-08-11T07:22:48;6.88;;;6.00;;
46447;SDS011;32145;50.390;30.778;2022-08-11T07:25:38;8.55;;;6.35;;
46447;SDS011;32145;50.390;30.778;2022-08-11T07:28:25;7.60;;;6.03;;
46447;SDS011;32145;50.390;30.778;2022-08-11T07:31:15;8.13;;;6.30;;
46447;SDS011;32145;50.390;30.778;2022-08-11T07:34:09;7.72;;;6.13;;
46447;SDS011;32145;50.390;30.778;2022-08-11T07:36:58;8.82;;;6.28;;
46447;SDS011;32145;50.390;30.778;2022-08-11T07:39:46;8.13;;;5.97;;
46447;SDS011;32145;50.390;30.778;2022-08-11T07:42:31;8.63;;;6.03;;
46447;SDS011;32145;50.390;30.778;2022-08-11T07:45:17;8.43;;;5.90;;
46447;SDS011;32145;50.390;30.778;2022-08-11T07:48:03;8.05;;;6.80;;
46447;SDS011;32145;50.390;30.778;2022-08-11T07:50:49;7.55;;;6.15;;
46447;SDS011;32145;50.390;30.778;2022-08-11T07:53:34;8.48;;;6.57;;
46447;SDS011;32145;50.390;30.778;2022-08-11T07:56:19;7.85;;;5.65;;
46447;SDS011;32145;50.390;30.778;2022-08-11T07:59:03;7.55;;;5.75;;
46447;SDS011;32145;50.390;30.778;2022-08-11T08:01:48;7.20;;;5.20;;
46447;SDS011;32145;50.390;30.778;2022-08-11T08:04:35;9.07;;;5.90;;
46447;SDS011;32145;50.390;30.778;2022-08-11T08:07:20;9.55;;;5.03;;
46447;SDS011;32145;50.390;30.778;2022-08-11T08:10:05;6.60;;;5.63;;
46447;SDS011;32145;50.390;30.778;2022-08-11T08:12:52;9.93;;;5.85;;
46447;SDS011;32145;50.390;30.778;2022-08-11T08:15:37;11.93;;;6.40;;
46447;SDS011;32145;50.390;30.778;2022-08-11T08:18:23;7.68;;;5.45;;
46447;SDS011;32145;50.390;30.778;2022-08-11T08:21:09;6.88;;;5.32;;
46447;SDS011;32145;50.390;30.778;2022-08-11T08:23:53;6.55;;;5.68;;
46447;SDS011;32145;50.390;30.778;2022-08-11T08:26:38;12.13;;;5.78;;
46447;SDS011;32145;50.390;30.778;2022-08-11T08:29:24;9.20;;;5.55;;
46447;SDS011;32145;50.390;30.778;2022-08-11T08:32:09;7.53;;;5.90;;
46447;SDS011;32145;50.390;30.778;2022-08-11T08:34:54;9.32;;;6.57;;
46447;SDS011;32145;50.390;30.778;2022-08-11T08:37:41;23.70;;;7.18;;
46447;SDS011;32145;50.390;30.778;2022-08-11T08:40:25;11.57;;;6.38;;
46447;SDS011;32145;50.390;30.778;2022-08-11T08:43:12;7.45;;;6.25;;
46447;SDS011;32145;50.390;30.778;2022-08-11T08:45:59;9.85;;;6.35;;
46447;SDS011;32145;50.390;30.778;2022-08-11T08:48:44;8.65;;;6.60;;
46447;SDS011;32145;50.390;30.778;2022-08-11T08:51:30;7.72;;;6.65;;
46447;SDS011;32145;50.390;30.778;2022-08-11T08:54:20;7.70;;;6.90;;
46447;SDS011;32145;50.390;30.778;2022-08-11T08:57:11;11.48;;;6.80;;
46447;SDS011;32145;50.390;30.778;2022-08-11T08:59:57;15.30;;;7.18;;
46447;SDS011;32145;50.390;30.778;2022-08-11T09:02:43;9.13;;;6.80;;
46447;SDS011;32145;50.390;30.778;2022-08-11T09:05:28;12.52;;;7.00;;
46447;SDS011;32145;50.390;30.778;2022-08-11T09:08:12;20.63;;;8.20;;
46447;SDS011;32145;50.390;30.778;2022-08-11T09:10:59;9.25;;;6.97;;
46447;SDS011;32145;50.390;30.778;2022-08-11T09:13:43;8.05;;;6.40;;
46447;SDS011;32145;50.390;30.778;2022-08-11T09:16:29;8.98;;;6.65;;
46447;SDS011;32145;50.390;30.778;2022-08-11T09:19:15;7.28;;;6.47;;
46447;SDS011;32145;50.390;30.778;2022-08-11T09:22:00;8.02;;;6.47;;
46447;SDS011;32145;50.390;30.778;2022-08-11T09:24:45;7.38;;;6.63;;
46447;SDS011;32145;50.390;30.778;2022-08-11T09:27:33;8.98;;;7.05;;
46447;SDS011;32145;50.390;30.778;2022-08-11T09:30:18;8.63;;;6.95;;
46447;SDS011;32145;50.390;30.778;2022-08-11T09:33:03;8.93;;;7.25;;
46447;SDS011;32145;50.390;30.778;2022-08-11T09:35:48;9.70;;;7.68;;
46447;SDS011;32145;50.390;30.778;2022-08-11T09:38:34;9.63;;;7.03;;
46447;SDS011;32145;50.390;30.778;2022-08-11T09:41:19;8.32;;;7.43;;
46447;SDS011;32145;50.390;30.778;2022-08-11T09:44:05;14.10;;;8.35;;
46447;SDS011;32145;50.390;30.778;2022-08-11T09:46:50;7.60;;;6.80;;
46447;SDS011;32145;50.390;30.778;2022-08-11T09:49:36;9.88;;;7.88;;
46447;SDS011;32145;50.390;30.778;2022-08-11T09:52:21;8.75;;;6.80;;
46447;SDS011;32145;50.390;30.778;2022-08-11T09:55:07;7.68;;;6.88;;
46447;SDS011;32145;50.390;30.778;2022-08-11T09:57:52;7.47;;;6.70;;
46447;SDS011;32145;50.390;30.778;2022-08-11T10:00:37;9.45;;;7.05;;
46447;SDS011;32145;50.390;30.778;2022-08-11T10:03:23;7.93;;;6.80;;
46447;SDS011;32145;50.390;30.778;2022-08-11T10:06:08;10.52;;;8.15;;
46447;SDS011;32145;50.390;30.778;2022-08-11T10:08:54;9.45;;;6.90;;
46447;SDS011;32145;50.390;30.778;2022-08-11T10:11:39;9.68;;;7.32;;
46447;SDS011;32145;50.390;30.778;2022-08-11T10:14:24;9.25;;;7.30;;
46447;SDS011;32145;50.390;30.778;2022-08-11T10:17:12;7.75;;;6.90;;
46447;SDS011;32145;50.390;30.778;2022-08-11T10:19:58;9.05;;;7.13;;
46447;SDS011;32145;50.390;30.778;2022-08-11T10:22:43;8.13;;;7.32;;
46447;SDS011;32145;50.390;30.778;2022-08-11T10:25:28;12.00;;;7.30;;
46447;SDS011;32145;50.390;30.778;2022-08-11T10:28:12;8.27;;;7.38;;
46447;SDS011;32145;50.390;30.778;2022-08-11T10:30:57;11.13;;;7.90;;
46447;SDS011;32145;50.390;30.778;2022-08-11T10:33:44;10.13;;;7.70;;
46447;SDS011;32145;50.390;30.778;2022-08-11T10:36:30;11.63;;;7.45;;
46447;SDS011;32145;50.390;30.778;2022-08-11T10:39:17;8.43;;;7.18;;
46447;SDS011;32145;50.390;30.778;2022-08-11T10:42:03;11.25;;;7.10;;
46447;SDS011;32145;50.390;30.778;2022-08-11T10:44:49;8.82;;;7.10;;
46447;SDS011;32145;50.390;30.778;2022-08-11T10:47:35;10.88;;;7.90;;
46447;SDS011;32145;50.390;30.778;2022-08-11T10:50:21;12.02;;;7.47;;
46447;SDS011;32145;50.390;30.778;2022-08-11T10:53:06;8.05;;;7.25;;
46447;SDS011;32145;50.390;30.778;2022-08-11T10:55:51;21.83;;;7.57;;
46447;SDS011;32145;50.390;30.778;2022-08-11T10:58:36;9.73;;;7.15;;
46447;SDS011;32145;50.390;30.778;2022-08-11T11:01:22;8.73;;;7.30;;
46447;SDS011;32145;50.390;30.778;2022-08-11T11:04:09;8.30;;;6.60;;
46447;SDS011;32145;50.390;30.778;2022-08-11T11:06:59;8.67;;;7.00;;
46447;SDS011;32145;50.390;30.778;2022-08-11T11:09:52;10.65;;;6.80;;
46447;SDS011;32145;50.390;30.778;2022-08-11T11:12:39;9.13;;;6.60;;
46447;SDS011;32145;50.390;30.778;2022-08-11T11:15:28;16.08;;;7.25;;
46447;SDS011;32145;50.390;30.778;2022-08-11T11:18:15;10.55;;;6.93;;
46447;SDS011;32145;50.390;30.778;2022-08-11T11:23:51;14.13;;;7.35;;
46447;SDS011;32145;50.390;30.778;2022-08-11T11:26:47;9.25;;;6.85;;
46447;SDS011;32145;50.390;30.778;2022-08-11T11:29:46;20.55;;;7.38;;
46447;SDS011;32145;50.390;30.778;2022-08-11T11:32:41;17.83;;;7.60;;
46447;SDS011;32145;50.390;30.778;2022-08-11T11:35:36;12.77;;;7.45;;
46447;SDS011;32145;50.390;30.778;2022-08-11T11:38:30;16.00;;;7.10;;
46447;SDS011;32145;50.390;30.778;2022-08-11T11:41:16;15.38;;;7.07;;
46447;SDS011;32145;50.390;30.778;2022-08-11T11:44:00;21.65;;;7.60;;
46447;SDS011;32145;50.390;30.778;2022-08-11T11:46:45;9.90;;;7.07;;
46447;SDS011;32145;50.390;30.778;2022-08-11T11:49:29;9.32;;;6.80;;
46447;SDS011;32145;50.390;30.778;2022-08-11T11:52:15;7.63;;;6.13;;
46447;SDS011;32145;50.390;30.778;2022-08-11T11:55:01;7.32;;;6.63;;
46447;SDS011;32145;50.390;30.778;2022-08-11T11:57:48;7.53;;;6.63;;
46447;SDS011;32145;50.390;30.778;2022-08-11T12:00:32;15.38;;;7.60;;
46447;SDS011;32145;50.390;30.778;2022-08-11T12:03:17;10.90;;;7.32;;
46447;SDS011;32145;50.390;30.778;2022-08-11T12:06:03;10.85;;;7.43;;
46447;SDS011;32145;50.390;30.778;2022-08-11T12:08:51;13.27;;;7.25;;
46447;SDS011;32145;50.390;30.778;2022-08-11T12:11:37;8.48;;;7.15;;
46447;SDS011;32145;50.390;30.778;2022-08-11T12:14:22;13.75;;;7.22;;
46447;SDS011;32145;50.390;30.778;2022-08-11T12:17:07;14.45;;;7.32;;
46447;SDS011;32145;50.390;30.778;2022-08-11T12:19:51;9.63;;;7.70;;
46447;SDS011;32145;50.390;30.778;2022-08-11T12:22:36;14.93;;;7.40;;
46447;SDS011;32145;50.390;30.778;2022-08-11T12:25:21;11.63;;;7.20;;
46447;SDS011;32145;50.390;30.778;2022-08-11T12:28:05;8.00;;;6.47;;
46447;SDS011;32145;50.390;30.778;2022-08-11T12:30:51;10.77;;;6.93;;
46447;SDS011;32145;50.390;30.778;2022-08-11T12:33:36;12.80;;;7.05;;
46447;SDS011;32145;50.390;30.778;2022-08-11T12:36:20;8.88;;;7.10;;
46447;SDS011;32145;50.390;30.778;2022-08-11T12:39:06;8.27;;;6.95;;
46447;SDS011;32145;50.390;30.778;2022-08-11T12:41:52;8.40;;;7.15;;
46447;SDS011;32145;50.390;30.778;2022-08-11T12:44:37;8.68;;;7.20;;
46447;SDS011;32145;50.390;30.778;2022-08-11T12:47:22;9.63;;;7.22;;
46447;SDS011;32145;50.390;30.778;2022-08-11T12:50:07;9.18;;;7.72;;
46447;SDS011;32145;50.390;30.778;2022-08-11T12:52:52;7.65;;;6.88;;
46447;SDS011;32145;50.390;30.778;2022-08-11T12:55:38;9.50;;;7.47;;
46447;SDS011;32145;50.390;30.778;2022-08-11T12:58:24;9.32;;;7.00;;
46447;SDS011;32145;50.390;30.778;2022-08-11T13:01:10;11.38;;;7.32;;
46447;SDS011;32145;50.390;30.778;2022-08-11T13:03:57;10.30;;;8.10;;
46447;SDS011;32145;50.390;30.778;2022-08-11T13:06:41;10.35;;;7.85;;
46447;SDS011;32145;50.390;30.778;2022-08-11T13:09:26;9.45;;;7.53;;
46447;SDS011;32145;50.390;30.778;2022-08-11T13:12:10;10.13;;;7.50;;
46447;SDS011;32145;50.390;30.778;2022-08-11T13:14:55;14.23;;;7.90;;
46447;SDS011;32145;50.390;30.778;2022-08-11T13:17:41;8.73;;;7.82;;
46447;SDS011;32145;50.390;30.778;2022-08-11T13:20:27;8.02;;;7.22;;
46447;SDS011;32145;50.390;30.778;2022-08-11T13:23:12;8.32;;;7.53;;
46447;SDS011;32145;50.390;30.778;2022-08-11T13:25:56;9.18;;;7.78;;
46447;SDS011;32145;50.390;30.778;2022-08-11T13:28:41;8.98;;;8.07;;
46447;SDS011;32145;50.390;30.778;2022-08-11T13:31:25;10.70;;;8.05;;
46447;SDS011;32145;50.390;30.778;2022-08-11T13:34:09;11.98;;;8.27;;
46447;SDS011;32145;50.390;30.778;2022-08-11T13:36:56;9.73;;;8.73;;
46447;SDS011;32145;50.390;30.778;2022-08-11T13:39:45;10.75;;;9.20;;
46447;SDS011;32145;50.390;30.778;2022-08-11T13:42:30;9.90;;;8.15;;
46447;SDS011;32145;50.390;30.778;2022-08-11T13:45:14;10.52;;;9.40;;
46447;SDS011;32145;50.390;30.778;2022-08-11T13:47:59;9.70;;;8.80;;
46447;SDS011;32145;50.390;30.778;2022-08-11T13:50:46;10.63;;;9.27;;
46447;SDS011;32145;50.390;30.778;2022-08-11T13:53:32;12.07;;;10.15;;
46447;SDS011;32145;50.390;30.778;2022-08-11T13:56:16;12.20;;;9.73;;
46447;SDS011;32145;50.390;30.778;2022-08-11T13:59:01;13.02;;;9.90;;
46447;SDS011;32145;50.390;30.778;2022-08-11T14:01:47;12.20;;;9.68;;
46447;SDS011;32145;50.390;30.778;2022-08-11T14:04:33;12.25;;;10.05;;
46447;SDS011;32145;50.390;30.778;2022-08-11T14:07:23;14.40;;;9.50;;
46447;SDS011;32145;50.390;30.778;2022-08-11T14:10:11;11.77;;;9.55;;
46447;SDS011;32145;50.390;30.778;2022-08-11T14:12:57;11.25;;;9.95;;
46447;SDS011;32145;50.390;30.778;2022-08-11T14:15:44;12.32;;;9.95;;
46447;SDS011;32145;50.390;30.778;2022-08-11T14:18:30;16.42;;;10.07;;
46447;SDS011;32145;50.390;30.778;2022-08-11T14:21:15;10.55;;;9.50;;
46447;SDS011;32145;50.390;30.778;2022-08-11T14:24:01;14.65;;;9.90;;
46447;SDS011;32145;50.390;30.778;2022-08-11T14:26:48;12.98;;;9.50;;
46447;SDS011;32145;50.390;30.778;2022-08-11T14:29:33;12.52;;;9.82;;
46447;SDS011;32145;50.390;30.778;2022-08-11T14:32:19;10.80;;;9.52;;
46447;SDS011;32145;50.390;30.778;2022-08-11T14:35:04;10.23;;;9.15;;
46447;SDS011;32145;50.390;30.778;2022-08-11T14:37:50;21.85;;;10.52;;
46447;SDS011;32145;50.390;30.778;2022-08-11T14:40:34;30.15;;;11.45;;
46447;SDS011;32145;50.390;30.778;2022-08-11T14:43:19;21.35;;;10.45;;
46447;SDS011;32145;50.390;30.778;2022-08-11T14:46:04;12.30;;;9.90;;
46447;SDS011;32145;50.390;30.778;2022-08-11T14:48:48;11.27;;;9.85;;
46447;SDS011;32145;50.390;30.778;2022-08-11T14:51:32;13.50;;;9.60;;
46447;SDS011;32145;50.390;30.778;2022-08-11T14:54:17;12.73;;;9.75;;
46447;SDS011;32145;50.390;30.778;2022-08-11T14:57:02;11.32;;;9.20;;
46447;SDS011;32145;50.390;30.778;2022-08-11T14:59:48;11.23;;;9.68;;
46447;SDS011;32145;50.390;30.778;2022-08-11T15:02:33;14.65;;;10.02;;
46447;SDS011;32145;50.390;30.778;2022-08-11T15:05:21;12.38;;;9.95;;
46447;SDS011;32145;50.390;30.778;2022-08-11T15:08:06;12.93;;;9.52;;
46447;SDS011;32145;50.390;30.778;2022-08-11T15:10:51;11.25;;;8.93;;
46447;SDS011;32145;50.390;30.778;2022-08-11T15:13:35;12.00;;;9.30;;
46447;SDS011;32145;50.390;30.778;2022-08-11T15:16:21;11.95;;;9.35;;
46447;SDS011;32145;50.390;30.778;2022-08-11T15:19:07;11.13;;;9.13;;
46447;SDS011;32145;50.390;30.778;2022-08-11T15:21:52;11.70;;;8.60;;
46447;SDS011;32145;50.390;30.778;2022-08-11T15:24:36;9.90;;;8.00;;
46447;SDS011;32145;50.390;30.778;2022-08-11T15:27:21;9.85;;;8.20;;
46447;SDS011;32145;50.390;30.778;2022-08-11T15:30:07;10.88;;;8.13;;
46447;SDS011;32145;50.390;30.778;2022-08-11T15:32:53;9.85;;;7.63;;
46447;SDS011;32145;50.390;30.778;2022-08-11T15:35:39;9.27;;;8.02;;
46447;SDS011;32145;50.390;30.778;2022-08-11T15:38:25;9.45;;;7.97;;
46447;SDS011;32145;50.390;30.778;2022-08-11T15:41:10;11.43;;;8.40;;
46447;SDS011;32145;50.390;30.778;2022-08-11T15:43:58;8.82;;;7.85;;
46447;SDS011;32145;50.390;30.778;2022-08-11T15:46:46;10.40;;;8.30;;
46447;SDS011;32145;50.390;30.778;2022-08-11T15:49:36;12.15;;;8.60;;
46447;SDS011;32145;50.390;30.778;2022-08-11T15:52:24;14.15;;;8.27;;
46447;SDS011;32145;50.390;30.778;2022-08-11T15:55:10;13.13;;;9.13;;
46447;SDS011;32145;50.390;30.778;2022-08-11T15:57:54;11.27;;;8.40;;
46447;SDS011;32145;50.390;30.778;2022-08-11T16:00:39;9.77;;;8.43;;
46447;SDS011;32145;50.390;30.778;2022-08-11T16:03:26;10.95;;;8.48;;
46447;SDS011;32145;50.390;30.778;2022-08-11T16:06:15;9.90;;;8.80;;
46447;SDS011;32145;50.390;30.778;2022-08-11T16:09:00;11.23;;;8.65;;
46447;SDS011;32145;50.390;30.778;2022-08-11T16:11:46;14.70;;;8.65;;
46447;SDS011;32145;50.390;30.778;2022-08-11T16:14:32;9.20;;;8.25;;
46447;SDS011;32145;50.390;30.778;2022-08-11T16:17:20;14.40;;;8.07;;
46447;SDS011;32145;50.390;30.778;2022-08-11T16:20:09;15.98;;;8.90;;
46447;SDS011;32145;50.390;30.778;2022-08-11T16:22:58;13.27;;;9.90;;
46447;SDS011;32145;50.390;30.778;2022-08-11T16:25:45;12.32;;;8.90;;
46447;SDS011;32145;50.390;30.778;2022-08-11T16:28:30;11.82;;;8.52;;
46447;SDS011;32145;50.390;30.778;2022-08-11T16:31:17;11.15;;;8.50;;
46447;SDS011;32145;50.390;30.778;2022-08-11T16:34:03;10.32;;;8.93;;
46447;SDS011;32145;50.390;30.778;2022-08-11T16:36:49;9.77;;;8.68;;
46447;SDS011;32145;50.390;30.778;2022-08-11T16:39:35;9.45;;;8.55;;
46447;SDS011;32145;50.390;30.778;2022-08-11T16:42:20;10.80;;;8.40;;
46447;SDS011;32145;50.390;30.778;2022-08-11T16:45:05;11.13;;;9.25;;
46447;SDS011;32145;50.390;30.778;2022-08-11T16:47:50;13.57;;;8.88;;
46447;SDS011;32145;50.390;30.778;2022-08-11T16:50:34;10.75;;;9.00;;
46447;SDS011;32145;50.390;30.778;2022-08-11T16:53:20;10.10;;;8.98;;
46447;SDS011;32145;50.390;30.778;2022-08-11T16:56:06;10.77;;;8.68;;
46447;SDS011;32145;50.390;30.778;2022-08-11T16:58:54;14.70;;;9.38;;
46447;SDS011;32145;50.390;30.778;2022-08-11T17:01:40;10.38;;;9.25;;
46447;SDS011;32145;50.390;30.778;2022-08-11T17:04:29;11.98;;;9.15;;
46447;SDS011;32145;50.390;30.778;2022-08-11T17:07:19;11.75;;;9.95;;
46447;SDS011;32145;50.390;30.778;2022-08-11T17:10:07;10.35;;;8.73;;
46447;SDS011;32145;50.390;30.778;2022-08-11T17:12:59;10.88;;;9.25;;
46447;SDS011;32145;50.390;30.778;2022-08-11T17:15:46;10.35;;;9.23;;
46447;SDS011;32145;50.390;30.778;2022-08-11T17:18:32;12.88;;;9.30;;
46447;SDS011;32145;50.390;30.778;2022-08-11T17:21:21;12.30;;;10.73;;
46447;SDS011;32145;50.390;30.778;2022-08-11T17:24:09;10.82;;;9.57;;
46447;SDS011;32145;50.390;30.778;2022-08-11T17:26:55;13.88;;;10.25;;
46447;SDS011;32145;50.390;30.778;2022-08-11T17:29:43;13.25;;;9.93;;
46447;SDS011;32145;50.390;30.778;2022-08-11T17:32:32;13.65;;;10.27;;
46447;SDS011;32145;50.390;30.778;2022-08-11T17:35:18;14.43;;;9.25;;
46447;SDS011;32145;50.390;30.778;2022-08-11T17:38:05;13.02;;;9.60;;